Time;durP1;ratioP1;P1;durP2;ratioP2;P2;SDS_P1;SDS_P2;PMS_P1;PMS_P2;Temp;Humidity;BMP_temperature;BMP_pressure;BME280_temperature;BME280_humidity;BME280_pressure;Samples;Min_cycle;Max_cycle;Signal;HPM_P1;HPM_P2
2021/03/30 00:01:19;;;;;;;25.85;24.20;;;9.20;61.60;;;;;;5094962;28;20192;-77
2021/03/30 00:03:46;;;;;;;26.05;24.35;;;9.10;62.00;;;;;;5095115;28;20195;-77
2021/03/30 00:06:13;;;;;;;27.35;25.55;;;9.10;61.90;;;;;;5094559;28;20202;-78
2021/03/30 00:08:39;;;;;;;26.50;24.90;;;9.10;61.70;;;;;;5095205;28;20252;-78
2021/03/30 00:11:06;;;;;;;27.27;25.30;;;9.10;61.30;;;;;;5095181;28;20195;-78
2021/03/30 00:13:33;;;;;;;26.00;24.50;;;9.00;62.40;;;;;;5095135;28;20199;-77
2021/03/30 00:16:00;;;;;;;25.73;24.23;;;8.90;62.30;;;;;;5094454;28;20202;-77
2021/03/30 00:18:27;;;;;;;26.13;24.33;;;8.90;62.10;;;;;;5094845;28;20199;-78
2021/03/30 00:20:54;;;;;;;25.48;23.88;;;8.90;62.20;;;;;;5094935;28;20219;-78
2021/03/30 00:23:21;;;;;;;26.45;24.70;;;8.80;62.50;;;;;;5095126;28;20236;-78
2021/03/30 00:25:47;;;;;;;26.25;24.58;;;8.70;63.70;;;;;;5094363;28;21189;-78
2021/03/30 00:28:13;;;;;;;27.10;25.33;;;8.70;69.40;;;;;;5094954;28;20195;-78
2021/03/30 00:30:40;;;;;;;25.20;23.60;;;8.70;64.80;;;;;;5094706;28;20595;-78
2021/03/30 00:33:06;;;;;;;26.75;24.95;;;8.70;63.30;;;;;;5096549;28;20786;-77
2021/03/30 00:35:33;;;;;;;26.52;24.67;;;8.60;62.90;;;;;;5100693;28;20603;-78
2021/03/30 00:38:00;;;;;;;26.30;24.70;;;8.60;62.90;;;;;;5094742;28;20286;-78
2021/03/30 00:40:27;;;;;;;26.42;24.60;;;8.60;64.20;;;;;;5094562;28;20211;-78
2021/03/30 00:42:54;;;;;;;26.23;24.35;;;8.60;62.60;;;;;;5094537;28;20190;-77
2021/03/30 00:45:20;;;;;;;26.10;24.33;;;8.60;63.30;;;;;;5094392;28;20656;-78
2021/03/30 00:47:49;;;;;;;25.38;23.88;;;8.50;64.00;;;;;;5093828;28;20630;-78
2021/03/30 00:50:18;;;;;;;26.25;24.75;;;8.40;63.40;;;;;;5094490;28;20226;-78
2021/03/30 00:52:46;;;;;;;26.23;24.40;;;8.40;63.20;;;;;;5094066;28;20211;-78
2021/03/30 00:55:13;;;;;;;26.20;24.60;;;8.50;63.10;;;;;;5094340;28;20677;-78
2021/03/30 00:57:40;;;;;;;25.27;23.65;;;8.50;63.40;;;;;;5093644;28;20213;-78
2021/03/30 01:00:09;;;;;;;25.45;23.75;;;8.40;63.90;;;;;;5093469;28;20579;-78
2021/03/30 01:02:36;;;;;;;24.85;23.30;;;8.40;63.90;;;;;;5094292;28;20196;-77
2021/03/30 01:05:03;;;;;;;25.85;24.35;;;8.40;63.30;;;;;;5094016;28;20248;-78
2021/03/30 01:07:29;;;;;;;26.02;24.02;;;8.40;63.00;;;;;;5093275;28;20234;-78
2021/03/30 01:10:08;;;;;;;26.48;24.77;;;8.50;62.20;;;;;;5093861;28;20216;-78
2021/03/30 01:12:46;;;;;;;25.52;23.92;;;8.50;62.40;;;;;;5093839;28;20215;-78
2021/03/30 01:15:29;;;;;;;26.38;24.75;;;8.30;63.30;;;;;;5093994;28;20203;-78
2021/03/30 01:18:04;;;;;;;26.45;24.75;;;8.40;62.90;;;;;;5093817;28;20206;-78
2021/03/30 01:21:03;;;;;;;27.58;25.40;;;8.30;63.20;;;;;;5093930;28;20276;-78
2021/03/30 01:23:41;;;;;;;25.95;24.35;;;8.20;63.90;;;;;;5093925;28;20282;-78
2021/03/30 01:26:18;;;;;;;25.98;24.48;;;8.10;63.90;;;;;;5093456;28;20648;-78
2021/03/30 01:28:58;;;;;;;25.60;24.10;;;8.10;63.90;;;;;;5093551;28;20209;-78
2021/03/30 01:31:27;;;;;;;26.83;25.13;;;8.00;64.60;;;;;;5093322;28;20206;-78
2021/03/30 01:33:56;;;;;;;25.20;23.80;;;8.00;64.70;;;;;;5093573;28;20191;-78
2021/03/30 01:36:24;;;;;;;26.15;24.55;;;8.10;64.20;;;;;;5092862;28;20211;-78
2021/03/30 01:38:51;;;;;;;26.30;24.70;;;8.00;64.00;;;;;;5093379;28;20672;-78
2021/03/30 01:41:22;;;;;;;25.58;23.90;;;7.80;64.80;;;;;;5093312;28;20231;-77
2021/03/30 01:43:49;;;;;;;25.35;23.85;;;7.70;65.30;;;;;;5093387;28;20203;-78
2021/03/30 01:46:16;;;;;;;25.98;24.33;;;7.80;65.70;;;;;;5092707;28;20197;-78
2021/03/30 01:48:45;;;;;;;25.30;23.77;;;7.70;65.90;;;;;;5093251;28;20202;-77
2021/03/30 01:51:13;;;;;;;27.05;25.25;;;7.70;66.00;;;;;;5093570;28;20202;-77
2021/03/30 01:53:41;;;;;;;25.20;23.60;;;7.60;66.10;;;;;;5093078;28;20228;-77
2021/03/30 01:56:10;;;;;;;26.45;24.75;;;7.60;66.00;;;;;;5092987;28;20198;-77
2021/03/30 01:58:38;;;;;;;27.73;25.77;;;7.50;66.10;;;;;;5093168;28;20291;-77
2021/03/30 02:01:05;;;;;;;25.15;23.70;;;7.50;66.20;;;;;;5092467;28;20318;-77
2021/03/30 02:03:32;;;;;;;24.88;23.20;;;7.50;66.60;;;;;;5093032;28;20556;-77
2021/03/30 02:06:01;;;;;;;25.90;24.20;;;7.50;66.90;;;;;;5092500;28;20202;-77
2021/03/30 02:08:30;;;;;;;27.25;25.60;;;7.50;66.70;;;;;;5092732;28;20770;-77
2021/03/30 02:10:57;;;;;;;24.75;23.30;;;7.40;66.70;;;;;;5092739;28;20258;-78
2021/03/30 02:13:28;;;;;;;26.08;24.48;;;7.30;66.70;;;;;;5092659;28;20228;-77
2021/03/30 02:15:56;;;;;;;26.88;25.17;;;7.20;67.20;;;;;;5092528;28;20195;-77
2021/03/30 02:18:25;;;;;;;25.05;23.65;;;7.20;67.40;;;;;;5092357;28;20202;-77
2021/03/30 02:20:57;;;;;;;26.15;24.23;;;7.20;67.70;;;;;;5092619;28;20228;-77
2021/03/30 02:23:26;;;;;;;27.20;25.35;;;7.20;67.70;;;;;;5092720;28;20200;-77
2021/03/30 02:25:56;;;;;;;29.80;28.00;;;7.20;68.00;;;;;;5092050;28;20202;-77
2021/03/30 02:28:24;;;;;;;25.45;23.75;;;7.20;68.00;;;;;;5092690;28;20202;-77
2021/03/30 02:30:52;;;;;;;26.13;24.45;;;7.10;68.00;;;;;;5092396;28;20359;-78
2021/03/30 02:33:21;;;;;;;26.90;24.75;;;7.10;68.10;;;;;;5092610;28;20215;-77
2021/03/30 02:35:49;;;;;;;25.23;23.67;;;7.10;68.90;;;;;;5091779;28;20245;-77
2021/03/30 02:38:17;;;;;;;26.60;24.98;;;7.00;69.00;;;;;;5092532;28;20191;-77
2021/03/30 02:40:45;;;;;;;26.65;24.95;;;7.00;69.30;;;;;;5092181;28;20226;-77
2021/03/30 02:43:14;;;;;;;26.15;24.30;;;7.00;68.70;;;;;;5092498;28;20200;-77
2021/03/30 02:45:42;;;;;;;25.88;23.60;;;7.00;68.50;;;;;;5091761;28;20205;-77
2021/03/30 02:48:10;;;;;;;26.27;24.63;;;7.10;67.80;;;;;;5092306;28;20779;-77
2021/03/30 02:50:37;;;;;;;27.13;25.35;;;7.10;67.50;;;;;;5092354;28;20225;-77
2021/03/30 02:53:04;;;;;;;26.38;24.65;;;7.10;67.40;;;;;;5092107;28;20582;-77
2021/03/30 02:55:32;;;;;;;26.90;25.10;;;7.00;67.50;;;;;;5091758;28;20727;-77
2021/03/30 02:58:00;;;;;;;27.52;25.20;;;6.90;68.10;;;;;;5092181;28;20198;-77
2021/03/30 03:00:26;;;;;;;30.80;28.55;;;6.90;68.20;;;;;;5091940;28;20248;-77
2021/03/30 03:02:55;;;;;;;25.63;24.13;;;7.00;68.00;;;;;;5092182;28;20262;-77
2021/03/30 03:05:22;;;;;;;25.73;24.23;;;6.90;67.80;;;;;;5091689;28;20199;-77
2021/03/30 03:07:50;;;;;;;26.33;24.65;;;6.90;68.10;;;;;;5091984;28;20228;-77
2021/03/30 03:10:17;;;;;;;26.70;25.00;;;6.90;68.10;;;;;;5092235;28;20216;-77
2021/03/30 03:12:44;;;;;;;27.02;25.23;;;6.80;68.60;;;;;;5091981;28;20776;-77
2021/03/30 03:15:15;;;;;;;26.63;24.63;;;6.70;69.30;;;;;;5092166;28;20196;-77
2021/03/30 03:17:42;;;;;;;26.27;24.77;;;6.70;69.70;;;;;;5091869;28;20198;-77
2021/03/30 03:20:10;;;;;;;26.63;24.85;;;6.60;69.70;;;;;;5092195;28;20715;-78
2021/03/30 03:22:37;;;;;;;26.60;24.90;;;6.60;69.70;;;;;;5092147;28;20193;-77
2021/03/30 03:25:06;;;;;;;28.15;26.17;;;6.60;69.80;;;;;;5091875;28;20200;-77
2021/03/30 03:27:34;;;;;;;27.83;25.92;;;6.60;72.10;;;;;;5091540;28;20196;-77
2021/03/30 03:30:05;;;;;;;26.40;24.42;;;6.60;72.60;;;;;;5093596;28;20305;-79
2021/03/30 03:32:32;;;;;;;27.17;25.42;;;6.70;70.40;;;;;;5095896;28;20219;-77
2021/03/30 03:34:59;;;;;;;26.38;24.40;;;6.60;70.10;;;;;;5095571;28;20243;-78
2021/03/30 03:37:26;;;;;;;26.30;24.55;;;6.60;70.00;;;;;;5095414;28;20287;-77
2021/03/30 03:39:52;;;;;;;27.95;25.88;;;6.60;69.90;;;;;;5095832;28;20222;-77
2021/03/30 03:42:18;;;;;;;27.10;25.20;;;6.70;69.60;;;;;;5095689;28;20191;-78
2021/03/30 03:44:45;;;;;;;25.95;24.35;;;6.70;69.30;;;;;;5095554;28;20650;-77
2021/03/30 03:47:12;;;;;;;30.65;28.67;;;6.70;69.10;;;;;;5095180;28;20564;-77
2021/03/30 03:49:39;;;;;;;27.15;25.45;;;6.80;69.10;;;;;;5095439;28;20216;-77
2021/03/30 03:52:11;;;;;;;26.38;24.67;;;6.80;68.90;;;;;;5095565;28;20275;-77
2021/03/30 03:54:39;;;;;;;29.65;27.75;;;6.80;68.80;;;;;;5095690;28;20217;-77
2021/03/30 03:57:12;;;;;;;29.17;26.88;;;6.80;69.20;;;;;;5094680;28;20195;-77
2021/03/30 03:59:40;;;;;;;27.75;25.52;;;6.70;70.50;;;;;;5095332;28;20288;-77
2021/03/30 04:02:14;;;;;;;34.10;31.55;;;6.70;70.40;;;;;;5094829;28;20198;-77
2021/03/30 04:04:49;;;;;;;27.48;25.77;;;6.80;69.80;;;;;;5095405;28;20195;-77
2021/03/30 04:07:19;;;;;;;28.40;26.60;;;6.80;69.40;;;;;;5094729;28;20286;-77
2021/03/30 04:09:49;;;;;;;28.77;26.52;;;6.80;69.50;;;;;;5094823;28;20228;-78
2021/03/30 04:12:18;;;;;;;29.60;27.40;;;6.80;69.40;;;;;;5095152;28;20222;-77
2021/03/30 04:14:44;;;;;;;30.13;28.42;;;6.80;69.50;;;;;;5095205;28;20202;-77
2021/03/30 04:17:14;;;;;;;27.77;25.70;;;6.70;69.90;;;;;;5094522;28;20196;-77
2021/03/30 04:19:40;;;;;;;28.55;26.65;;;6.80;70.60;;;;;;5095011;28;20211;-77
2021/03/30 04:22:09;;;;;;;27.60;25.45;;;6.80;70.40;;;;;;5095022;28;20196;-77
2021/03/30 04:24:35;;;;;;;26.25;24.55;;;6.90;69.60;;;;;;5094923;28;20205;-77
2021/03/30 04:27:02;;;;;;;28.83;26.67;;;7.00;68.90;;;;;;5094374;28;20656;-77
2021/03/30 04:29:29;;;;;;;27.23;25.48;;;7.00;68.50;;;;;;5094804;28;20215;-77
2021/03/30 04:31:55;;;;;;;27.85;25.85;;;7.00;68.50;;;;;;5094556;28;20575;-77
2021/03/30 04:34:22;;;;;;;30.05;28.15;;;7.00;68.70;;;;;;5094550;28;20206;-77
2021/03/30 04:36:48;;;;;;;27.40;25.60;;;7.00;68.90;;;;;;5093961;28;20197;-77
2021/03/30 04:39:15;;;;;;;27.90;25.90;;;7.00;70.20;;;;;;5094564;28;20726;-77
2021/03/30 04:41:42;;;;;;;28.17;25.98;;;6.90;69.60;;;;;;5094083;28;20247;-77
2021/03/30 04:44:08;;;;;;;29.58;27.88;;;6.90;69.40;;;;;;5094513;28;20292;-77
2021/03/30 04:46:35;;;;;;;27.55;25.50;;;6.80;69.20;;;;;;5093989;28;20249;-77
2021/03/30 04:49:01;;;;;;;28.67;26.88;;;6.80;69.20;;;;;;5094470;28;20219;-77
2021/03/30 04:51:28;;;;;;;29.15;27.25;;;6.80;69.40;;;;;;5094274;28;20191;-77
2021/03/30 04:53:54;;;;;;;27.83;25.67;;;6.70;70.10;;;;;;5094110;28;20222;-77
2021/03/30 04:56:21;;;;;;;28.73;26.40;;;6.60;70.70;;;;;;5093908;28;20201;-77
2021/03/30 04:58:47;;;;;;;27.77;25.63;;;6.60;71.00;;;;;;5094290;28;20197;-77
2021/03/30 05:01:14;;;;;;;28.90;27.05;;;6.70;70.40;;;;;;5093926;28;20214;-77
2021/03/30 05:03:40;;;;;;;30.77;28.52;;;6.70;70.30;;;;;;5096379;28;20198;-77
2021/03/30 05:06:06;;;;;;;28.25;26.35;;;6.70;69.80;;;;;;5100938;28;20193;-77
2021/03/30 05:08:33;;;;;;;27.02;25.23;;;6.70;69.70;;;;;;5097666;28;20596;-77
2021/03/30 05:10:59;;;;;;;28.63;26.73;;;6.70;69.90;;;;;;5094147;28;20221;-77
2021/03/30 05:13:27;;;;;;;27.48;25.33;;;6.70;69.40;;;;;;5093950;28;20215;-77
2021/03/30 05:15:53;;;;;;;29.95;27.85;;;6.70;69.30;;;;;;5093784;28;20203;-77
2021/03/30 05:18:19;;;;;;;27.88;25.55;;;6.60;69.30;;;;;;5093762;28;20199;-77
2021/03/30 05:20:46;;;;;;;27.85;25.85;;;6.60;69.40;;;;;;5093657;28;20309;-77
2021/03/30 05:23:12;;;;;;;28.50;26.70;;;6.60;69.70;;;;;;5093692;28;20203;-77
2021/03/30 05:25:39;;;;;;;30.50;28.38;;;6.60;69.70;;;;;;5093191;28;20228;-77
2021/03/30 05:28:06;;;;;;;27.67;25.50;;;6.60;72.10;;;;;;5093483;28;20192;-77
2021/03/30 05:30:33;;;;;;;27.75;25.90;;;6.60;71.90;;;;;;5093680;28;20217;-77
2021/03/30 05:33:00;;;;;;;28.23;26.23;;;6.60;71.10;;;;;;5093381;28;20256;-77
2021/03/30 05:35:26;;;;;;;28.35;26.55;;;6.60;70.50;;;;;;5093154;28;20213;-77
2021/03/30 05:37:52;;;;;;;28.02;25.90;;;6.70;70.20;;;;;;5093343;28;20207;-77
2021/03/30 05:40:20;;;;;;;27.00;25.20;;;6.80;69.90;;;;;;5093320;28;20232;-77
2021/03/30 05:42:48;;;;;;;28.02;26.10;;;6.90;69.60;;;;;;5093374;28;20556;-77
2021/03/30 05:45:16;;;;;;;28.75;26.67;;;7.00;69.10;;;;;;5093361;28;20206;-77
2021/03/30 05:47:44;;;;;;;29.38;27.35;;;7.00;68.90;;;;;;5092641;28;20641;-78
2021/03/30 05:50:13;;;;;;;28.67;26.45;;;7.00;69.00;;;;;;5093263;28;20316;-78
2021/03/30 05:52:46;;;;;;;28.85;27.05;;;7.10;68.90;;;;;;5092739;28;20648;-78
2021/03/30 05:55:20;;;;;;;27.88;25.88;;;7.10;68.90;;;;;;5093501;28;20320;-78
2021/03/30 05:57:49;;;;;;;30.60;28.42;;;7.10;69.20;;;;;;5092967;28;20247;-79
2021/03/30 06:00:16;;;;;;;28.00;25.75;;;7.20;68.80;;;;;;5092462;28;20769;-78
2021/03/30 06:02:47;;;;;;;30.08;27.98;;;7.30;71.80;;;;;;5093496;28;20202;-78
2021/03/30 06:05:15;;;;;;;30.48;27.70;;;7.40;69.80;;;;;;5093316;28;20195;-78
2021/03/30 06:07:42;;;;;;;29.27;26.85;;;7.50;69.20;;;;;;5092635;28;20202;-78
2021/03/30 06:10:10;;;;;;;29.67;26.75;;;7.50;68.70;;;;;;5092918;28;20226;-79
2021/03/30 06:12:37;;;;;;;29.65;27.58;;;7.60;68.40;;;;;;5092958;28;20225;-78
2021/03/30 06:15:05;;;;;;;33.33;30.30;;;7.80;68.20;;;;;;5092659;28;20199;-78
2021/03/30 06:17:40;;;;;;;29.58;27.10;;;7.80;69.50;;;;;;5092744;28;20203;-79
2021/03/30 06:20:10;;;;;;;30.60;28.63;;;7.90;70.60;;;;;;5096081;28;20219;-78
2021/03/30 06:22:47;;;;;;;30.98;28.67;;;8.00;68.80;;;;;;5096304;28;20692;-78
2021/03/30 06:25:34;;;;;;;29.65;27.27;;;8.20;68.10;;;;;;5093198;28;20564;-79
2021/03/30 06:28:11;;;;;;;29.75;27.15;;;8.40;67.50;;;;;;5093187;28;20199;-78
2021/03/30 06:30:39;;;;;;;33.13;30.75;;;8.60;67.80;;;;;;5092704;28;20696;-78
2021/03/30 06:33:06;;;;;;;30.88;28.67;;;8.70;66.80;;;;;;5092688;28;20215;-81
2021/03/30 06:35:34;;;;;;;29.75;27.70;;;8.80;66.90;;;;;;5091925;28;20242;-78
2021/03/30 06:38:00;;;;;;;29.33;27.33;;;8.90;66.00;;;;;;5092408;28;20206;-79
2021/03/30 06:40:29;;;;;;;30.40;27.55;;;9.00;65.70;;;;;;5092253;28;20223;-78
2021/03/30 06:42:58;;;;;;;32.80;30.27;;;9.10;65.50;;;;;;5092348;28;20277;-78
2021/03/30 06:45:26;;;;;;;35.60;33.22;;;9.10;65.40;;;;;;5092214;28;20227;-78
2021/03/30 06:47:54;;;;;;;32.83;29.80;;;9.30;65.00;;;;;;5092446;28;20602;-78
2021/03/30 06:50:25;;;;;;;29.42;27.42;;;9.20;66.50;;;;;;5092365;28;20219;-78
2021/03/30 06:52:54;;;;;;;31.58;28.88;;;9.30;66.90;;;;;;5092371;28;20229;-78
2021/03/30 06:55:28;;;;;;;29.98;27.88;;;9.30;71.70;;;;;;5092359;28;20198;-78
2021/03/30 06:58:00;;;;;;;33.55;30.83;;;9.40;68.30;;;;;;5092444;28;20199;-78
2021/03/30 07:00:32;;;;;;;31.35;28.73;;;9.60;66.20;;;;;;5092657;28;20219;-80
2021/03/30 07:03:00;;;;;;;32.88;30.27;;;9.70;65.40;;;;;;5093211;28;20191;-78
2021/03/30 07:05:33;;;;;;;32.40;29.98;;;9.80;64.50;;;;;;5096023;28;20560;-79
2021/03/30 07:08:02;;;;;;;37.60;35.20;;;9.90;64.00;;;;;;5096432;28;20195;-78
2021/03/30 07:10:30;;;;;;;30.50;28.30;;;10.00;63.50;;;;;;5096215;28;20222;-78
2021/03/30 07:12:57;;;;;;;32.72;30.02;;;10.10;63.10;;;;;;5096031;28;20692;-78
2021/03/30 07:15:25;;;;;;;30.77;28.75;;;10.20;62.60;;;;;;5095884;28;20199;-78
2021/03/30 07:18:15;;;;;;;30.65;28.20;;;10.30;64.50;;;;;;5096127;28;20191;-78
2021/03/30 07:20:45;;;;;;;31.60;28.98;;;10.50;62.50;;;;;;5091464;28;20226;-78
2021/03/30 07:23:20;;;;;;;30.42;28.52;;;10.60;61.40;;;;;;5096092;28;20260;-78
2021/03/30 07:25:51;;;;;;;29.77;27.73;;;10.70;60.80;;;;;;5095597;28;20230;-78
2021/03/30 07:28:22;;;;;;;30.42;28.23;;;10.80;60.00;;;;;;5096755;28;20560;-78
2021/03/30 07:30:54;;;;;;;32.80;30.17;;;10.90;59.60;;;;;;5096271;28;20219;-78
2021/03/30 07:33:26;;;;;;;32.53;30.48;;;11.00;59.20;;;;;;5096219;28;20473;-78
2021/03/30 07:35:55;;;;;;;30.30;27.87;;;11.10;59.00;;;;;;5095605;28;20252;-78
2021/03/30 07:38:29;;;;;;;30.93;28.53;;;11.20;58.80;;;;;;5095990;28;20456;-78
2021/03/30 07:40:56;;;;;;;31.87;29.57;;;11.40;58.70;;;;;;5096319;28;20817;-78
2021/03/30 07:43:24;;;;;;;31.60;29.07;;;11.50;58.50;;;;;;5096229;28;20784;-78
2021/03/30 07:45:53;;;;;;;33.00;30.43;;;11.70;58.30;;;;;;5095548;28;20453;-78
2021/03/30 07:48:23;;;;;;;31.07;28.63;;;11.80;58.00;;;;;;5096030;28;20902;-78
2021/03/30 07:50:54;;;;;;;30.10;28.00;;;11.90;57.50;;;;;;5095939;28;20576;-78
2021/03/30 07:53:43;;;;;;;32.67;29.97;;;12.00;57.20;;;;;;5096448;28;20508;-78
2021/03/30 07:56:11;;;;;;;31.33;29.17;;;12.20;56.80;;;;;;5095696;28;20440;-78
2021/03/30 07:58:40;;;;;;;31.53;29.00;;;12.30;56.50;;;;;;5095940;28;20441;-79
2021/03/30 08:01:06;;;;;;;32.93;30.50;;;12.50;56.10;;;;;;5095417;28;21007;-78
2021/03/30 08:03:35;;;;;;;33.83;31.13;;;12.60;55.50;;;;;;5095784;28;20540;-78
2021/03/30 08:06:17;;;;;;;33.23;30.73;;;12.70;55.30;;;;;;5095239;28;20803;-78
2021/03/30 08:08:56;;;;;;;34.20;31.60;;;12.90;55.00;;;;;;5095571;28;20449;-78
2021/03/30 08:11:46;;;;;;;32.03;29.67;;;12.90;54.80;;;;;;5095260;28;20449;-79
2021/03/30 08:14:38;;;;;;;32.90;30.23;;;13.00;54.60;;;;;;5096038;28;20476;-78
2021/03/30 08:17:06;;;;;;;34.83;32.27;;;13.20;54.20;;;;;;5101779;28;20449;-79
2021/03/30 08:19:33;;;;;;;32.37;29.87;;;13.30;54.00;;;;;;5095856;28;20499;-78
2021/03/30 08:22:01;;;;;;;33.57;30.90;;;13.40;53.80;;;;;;5095376;28;20453;-78
2021/03/30 08:24:55;;;;;;;33.60;31.20;;;13.50;54.10;;;;;;5095968;28;20814;-79
2021/03/30 08:27:49;;;;;;;34.30;31.70;;;13.50;54.20;;;;;;5095026;28;20453;-78
2021/03/30 08:30:37;;;;;;;33.50;30.87;;;13.60;54.10;;;;;;5047579;28;20526;-78
2021/03/30 08:33:07;;;;;;;33.67;30.80;;;13.80;53.90;;;;;;5095067;28;20826;-79
2021/03/30 08:35:35;;;;;;;34.13;30.63;;;13.90;53.70;;;;;;5094372;28;20541;-78
2021/03/30 08:38:02;;;;;;;33.87;31.17;;;14.00;53.80;;;;;;5095335;28;20506;-79
2021/03/30 08:40:43;;;;;;;33.43;30.80;;;14.10;53.60;;;;;;5095077;28;20546;-78
2021/03/30 08:43:23;;;;;;;33.37;30.67;;;14.20;53.70;;;;;;5095401;28;20577;-78
2021/03/30 08:46:04;;;;;;;35.47;32.73;;;14.30;53.80;;;;;;5096260;28;20981;-78
2021/03/30 08:48:37;;;;;;;34.37;30.97;;;14.40;53.70;;;;;;5095564;28;20449;-79
2021/03/30 08:51:06;;;;;;;31.97;29.17;;;14.50;53.40;;;;;;5095378;28;20555;-78
2021/03/30 08:53:33;;;;;;;31.57;29.30;;;14.60;53.20;;;;;;5095139;28;21024;-78
2021/03/30 08:56:03;;;;;;;35.70;32.87;;;14.70;52.80;;;;;;5094696;28;20935;-78
2021/03/30 08:58:31;;;;;;;32.70;30.20;;;14.80;53.00;;;;;;5095062;28;21021;-79
2021/03/30 09:00:58;;;;;;;33.60;31.30;;;14.90;52.70;;;;;;5094802;28;20499;-78
2021/03/30 09:03:29;;;;;;;34.70;32.33;;;15.00;52.80;;;;;;5094795;28;20452;-79
2021/03/30 09:05:57;;;;;;;33.30;30.63;;;15.20;52.60;;;;;;5093837;28;20502;-78
2021/03/30 09:08:40;;;;;;;33.50;30.67;;;15.20;52.70;;;;;;5094598;28;20449;-79
2021/03/30 09:11:21;;;;;;;33.87;31.03;;;15.40;52.20;;;;;;5094322;28;20949;-79
2021/03/30 09:14:02;;;;;;;31.90;29.30;;;15.50;52.30;;;;;;5094642;28;20483;-79
2021/03/30 09:16:29;;;;;;;32.23;29.73;;;15.50;52.20;;;;;;5093840;28;20539;-79
2021/03/30 09:19:16;;;;;;;32.03;29.70;;;15.70;52.20;;;;;;5097019;28;20450;-79
2021/03/30 09:21:46;;;;;;;32.37;29.73;;;15.90;51.60;;;;;;5108811;28;20508;-79
2021/03/30 09:24:25;;;;;;;33.50;30.37;;;16.00;51.70;;;;;;5109816;28;20476;-79
2021/03/30 09:26:52;;;;;;;33.10;30.47;;;16.10;51.20;;;;;;5092805;28;20880;-79
2021/03/30 09:29:19;;;;;;;32.50;29.90;;;16.20;50.90;;;;;;5094148;28;20473;-80
2021/03/30 09:31:47;;;;;;;32.10;29.70;;;16.30;50.70;;;;;;5093842;28;20537;-79
2021/03/30 09:34:13;;;;;;;31.53;29.00;;;16.40;50.80;;;;;;5094085;28;20873;-79
2021/03/30 09:36:42;;;;;;;32.67;30.17;;;16.50;50.50;;;;;;5093126;28;20594;-79
2021/03/30 09:39:16;;;;;;;32.90;29.90;;;16.60;50.50;;;;;;5093697;28;20816;-79
2021/03/30 09:41:44;;;;;;;31.50;29.40;;;16.60;50.20;;;;;;5093479;28;20462;-79
2021/03/30 09:44:11;;;;;;;32.87;30.50;;;16.80;49.90;;;;;;5093829;28;20953;-79
2021/03/30 09:46:37;;;;;;;36.20;32.93;;;16.90;49.80;;;;;;5092852;28;20461;-79
2021/03/30 09:49:07;;;;;;;31.90;29.70;;;17.00;49.50;;;;;;5093758;28;20481;-78
2021/03/30 09:51:35;;;;;;;34.27;31.30;;;17.10;49.30;;;;;;5094839;28;20485;-79
2021/03/30 09:54:01;;;;;;;31.93;29.30;;;17.30;49.00;;;;;;5094543;28;20469;-79
2021/03/30 09:56:31;;;;;;;32.50;29.80;;;17.30;49.20;;;;;;5094907;28;20535;-79
2021/03/30 09:58:59;;;;;;;31.97;29.57;;;17.50;48.80;;;;;;5096876;28;20449;-79
2021/03/30 10:01:26;;;;;;;32.17;29.53;;;17.60;48.60;;;;;;5097429;28;20540;-79
2021/03/30 10:03:53;;;;;;;32.57;30.13;;;17.60;48.70;;;;;;5096166;28;20539;-79
2021/03/30 10:06:20;;;;;;;32.87;30.33;;;17.80;48.20;;;;;;5096365;28;20552;-79
2021/03/30 10:08:47;;;;;;;31.83;29.20;;;17.80;48.10;;;;;;5095438;28;20449;-79
2021/03/30 10:11:25;;;;;;;33.20;30.63;;;17.90;48.10;;;;;;5105633;28;20491;-79
2021/03/30 10:13:52;;;;;;;34.10;31.50;;;18.00;47.80;;;;;;5097462;28;20483;-79
2021/03/30 10:16:19;;;;;;;34.73;31.97;;;18.10;47.70;;;;;;5095407;28;20453;-79
2021/03/30 10:18:45;;;;;;;33.97;31.37;;;18.30;47.20;;;;;;5095765;28;20457;-79
2021/03/30 10:21:13;;;;;;;33.93;31.13;;;18.40;47.10;;;;;;5094991;28;20537;-79
2021/03/30 10:23:41;;;;;;;34.73;31.80;;;18.50;46.60;;;;;;5093086;28;20453;-79
2021/03/30 10:26:13;;;;;;;33.67;30.53;;;18.60;46.30;;;;;;5092583;28;20449;-79
2021/03/30 10:28:39;;;;;;;33.30;30.83;;;18.70;46.10;;;;;;5092767;28;20985;-79
2021/03/30 10:31:11;;;;;;;33.63;30.60;;;18.70;46.10;;;;;;5093078;28;20473;-79
2021/03/30 10:33:39;;;;;;;33.30;30.90;;;18.90;45.20;;;;;;5093017;28;20560;-79
2021/03/30 10:36:09;;;;;;;32.40;30.10;;;19.10;44.60;;;;;;5092194;28;20490;-79
2021/03/30 10:38:35;;;;;;;31.90;29.27;;;19.20;43.90;;;;;;5092936;28;20523;-79
2021/03/30 10:41:07;;;;;;;32.03;29.67;;;19.40;43.10;;;;;;5093627;28;20990;-79
2021/03/30 10:43:33;;;;;;;32.13;29.83;;;19.40;43.20;;;;;;5093207;28;20950;-77
2021/03/30 10:46:00;;;;;;;31.97;29.63;;;19.40;42.70;;;;;;5091899;28;20459;-77
2021/03/30 10:48:27;;;;;;;32.30;30.00;;;19.50;41.90;;;;;;5092272;28;20478;-77
2021/03/30 10:50:54;;;;;;;31.97;29.57;;;19.50;41.50;;;;;;5092566;28;20507;-76
2021/03/30 10:53:22;;;;;;;29.40;27.60;;;19.60;41.80;;;;;;5092309;28;21049;-77
2021/03/30 10:55:49;;;;;;;33.97;31.37;;;19.80;41.50;;;;;;5091644;28;20955;-77
2021/03/30 10:58:16;;;;;;;31.93;29.53;;;19.70;41.20;;;;;;5092189;28;20542;-76
2021/03/30 11:00:43;;;;;;;32.20;30.00;;;19.90;40.80;;;;;;5091775;28;20508;-77
2021/03/30 11:03:09;;;;;;;30.27;28.00;;;20.10;40.10;;;;;;5092311;28;20508;-77
2021/03/30 11:05:37;;;;;;;32.97;30.57;;;20.20;39.20;;;;;;5091501;28;20498;-77
2021/03/30 11:08:04;;;;;;;31.27;28.97;;;20.20;38.90;;;;;;5092021;28;20464;-77
2021/03/30 11:10:32;;;;;;;31.43;29.23;;;20.40;39.10;;;;;;5091977;28;20831;-77
2021/03/30 11:12:59;;;;;;;31.00;28.80;;;20.50;39.00;;;;;;5092007;28;20607;-77
2021/03/30 11:15:25;;;;;;;31.13;28.90;;;20.50;38.90;;;;;;5092070;28;20533;-77
2021/03/30 11:17:52;;;;;;;30.90;28.93;;;20.60;38.70;;;;;;5092197;28;20968;-77
2021/03/30 11:20:18;;;;;;;30.87;28.60;;;20.70;37.60;;;;;;5092111;28;20552;-77
2021/03/30 11:22:49;;;;;;;29.47;27.30;;;20.80;36.80;;;;;;5092013;28;20532;-78
2021/03/30 11:25:15;;;;;;;31.37;29.17;;;20.90;36.70;;;;;;5092183;28;20453;-77
2021/03/30 11:27:43;;;;;;;29.20;27.40;;;20.90;36.30;;;;;;5091650;28;20459;-77
2021/03/30 11:30:13;;;;;;;29.90;27.73;;;20.90;36.40;;;;;;5092390;28;20476;-77
2021/03/30 11:32:44;;;;;;;30.70;28.70;;;20.90;36.30;;;;;;5091995;28;20480;-77
2021/03/30 11:35:13;;;;;;;29.37;27.40;;;21.00;35.80;;;;;;5091755;28;20461;-77
2021/03/30 11:37:48;;;;;;;30.23;28.17;;;20.90;36.00;;;;;;5091468;28;20460;-77
2021/03/30 11:40:16;;;;;;;31.93;29.83;;;21.00;35.80;;;;;;5091857;28;20475;-77
2021/03/30 11:42:43;;;;;;;30.40;28.20;;;21.10;36.10;;;;;;5092062;28;20553;-77
2021/03/30 11:45:10;;;;;;;29.80;27.47;;;21.30;35.50;;;;;;5091746;28;20510;-77
2021/03/30 11:47:37;;;;;;;29.57;27.47;;;21.40;34.90;;;;;;5091544;28;20456;-77
2021/03/30 11:50:06;;;;;;;32.20;30.10;;;21.60;34.40;;;;;;5091899;28;20473;-77
2021/03/30 11:52:32;;;;;;;28.33;26.43;;;21.50;34.60;;;;;;5095501;28;20445;-77
2021/03/30 11:54:59;;;;;;;30.03;28.10;;;21.70;34.40;;;;;;5095576;28;20922;-77
2021/03/30 11:57:27;;;;;;;29.13;27.30;;;21.80;34.00;;;;;;5094908;28;20457;-77
2021/03/30 11:59:53;;;;;;;30.53;28.27;;;21.80;33.90;;;;;;5095552;28;20469;-77
2021/03/30 12:02:19;;;;;;;29.07;27.10;;;21.90;33.70;;;;;;5094939;28;20537;-77
2021/03/30 12:04:46;;;;;;;29.13;27.33;;;22.00;33.90;;;;;;5098757;28;20457;-77
2021/03/30 12:07:12;;;;;;;30.20;27.73;;;22.20;33.70;;;;;;5097521;28;20460;-77
2021/03/30 12:09:38;;;;;;;29.80;27.50;;;22.20;33.50;;;;;;5098051;28;20472;-77
2021/03/30 12:12:06;;;;;;;28.60;26.50;;;22.30;33.10;;;;;;5096594;28;20525;-77
2021/03/30 12:14:34;;;;;;;28.53;26.73;;;22.30;33.10;;;;;;5095480;28;20480;-77
2021/03/30 12:17:00;;;;;;;29.23;26.80;;;22.30;33.00;;;;;;5094698;28;20464;-77
2021/03/30 12:19:26;;;;;;;29.17;27.27;;;22.30;32.90;;;;;;5096543;28;20473;-77
2021/03/30 12:21:54;;;;;;;27.80;26.10;;;22.50;32.70;;;;;;5095849;28;20448;-77
2021/03/30 12:24:21;;;;;;;28.80;27.00;;;22.70;32.30;;;;;;5095592;28;20446;-77
2021/03/30 12:26:47;;;;;;;30.50;28.50;;;22.80;32.10;;;;;;5097827;28;20465;-77
2021/03/30 12:29:14;;;;;;;29.50;27.33;;;22.90;32.20;;;;;;5102967;28;20526;-77
2021/03/30 12:31:42;;;;;;;28.83;26.83;;;23.00;32.00;;;;;;5103616;28;20914;-77
2021/03/30 12:34:08;;;;;;;29.60;27.40;;;23.10;32.00;;;;;;5104219;28;20473;-77
2021/03/30 12:36:34;;;;;;;30.37;28.37;;;23.10;32.10;;;;;;5104407;28;20540;-77
2021/03/30 12:39:01;;;;;;;30.00;27.90;;;23.20;31.50;;;;;;5105082;28;20516;-77
2021/03/30 12:41:27;;;;;;;30.17;28.13;;;23.30;31.30;;;;;;5104768;28;20480;-77
2021/03/30 12:43:53;;;;;;;31.50;29.27;;;23.30;30.90;;;;;;5105343;28;20445;-77